Time;durP1;ratioP1;P1;durP2;ratioP2;P2;SDS_P1;SDS_P2;PMS_P1;PMS_P2;Temp;Humidity;BMP_temperature;BMP_pressure;BME280_temperature;BME280_humidity;BME280_pressure;Samples;Min_cycle;Max_cycle;Signal;HPM_P1;HPM_P2
2024/02/03 00:00:52;;;;;;;20.13;15.75;;;10.40;99.90;;;;;;5039184;28;20049;-83
2024/02/03 00:03:18;;;;;;;20.55;15.23;;;10.40;99.90;;;;;;5039197;28;20124;-82
2024/02/03 00:05:45;;;;;;;19.27;14.32;;;10.40;99.90;;;;;;5056064;28;20033;-83
2024/02/03 00:08:10;;;;;;;23.15;15.45;;;10.40;99.90;;;;;;5039534;28;20029;-82
2024/02/03 00:10:36;;;;;;;16.45;13.80;;;10.40;99.90;;;;;;5039691;28;20032;-83
2024/02/03 00:13:05;;;;;;;18.88;13.85;;;10.40;99.90;;;;;;5055667;28;20033;-83
2024/02/03 00:15:33;;;;;;;18.73;15.00;;;10.40;99.90;;;;;;5041924;28;20384;-83
2024/02/03 00:17:59;;;;;;;19.58;14.10;;;10.40;99.90;;;;;;5057893;28;20033;-83
2024/02/03 00:20:27;;;;;;;18.15;14.07;;;10.40;99.90;;;;;;5058253;28;20099;-84
2024/02/03 00:22:55;;;;;;;18.95;12.88;;;10.40;99.90;;;;;;5048799;28;20059;-80
2024/02/03 00:25:21;;;;;;;15.85;13.15;;;10.40;99.90;;;;;;5078615;28;20057;-83
2024/02/03 00:27:54;;;;;;;19.35;14.45;;;10.40;99.90;;;;;;5076984;28;20032;-82
2024/02/03 00:30:20;;;;;;;16.38;13.25;;;10.40;99.90;;;;;;5070995;28;20040;-83
2024/02/03 00:32:48;;;;;;;20.00;15.13;;;10.40;99.90;;;;;;5059961;28;20033;-83
2024/02/03 00:35:15;;;;;;;18.35;14.02;;;10.40;99.90;;;;;;5039083;28;20029;-83
2024/02/03 00:37:40;;;;;;;20.27;14.18;;;10.40;99.90;;;;;;5037766;28;20041;-83
2024/02/03 00:40:10;;;;;;;18.88;14.45;;;10.40;99.90;;;;;;5054818;28;20029;-84
2024/02/03 00:42:35;;;;;;;18.40;14.27;;;10.40;99.90;;;;;;5038553;28;20530;-83
2024/02/03 00:45:07;;;;;;;18.45;14.15;;;10.40;99.90;;;;;;5055969;28;20024;-83
2024/02/03 00:47:33;;;;;;;19.02;14.55;;;10.40;99.90;;;;;;5037998;28;20078;-83
2024/02/03 00:49:59;;;;;;;19.50;15.25;;;10.40;99.90;;;;;;5054268;28;20427;-83
2024/02/03 00:52:26;;;;;;;19.88;14.63;;;10.40;99.90;;;;;;5054810;28;20028;-82
2024/02/03 00:54:58;;;;;;;19.40;15.48;;;10.40;99.90;;;;;;5054657;28;20094;-83
2024/02/03 00:57:24;;;;;;;19.38;15.20;;;10.40;99.90;;;;;;5054956;28;20119;-83
2024/02/03 00:59:58;;;;;;;16.08;14.38;;;10.40;99.90;;;;;;5054450;28;20029;-83
2024/02/03 01:02:24;;;;;;;17.35;13.60;;;10.40;99.90;;;;;;5056083;28;20075;-82
2024/02/03 01:04:52;;;;;;;15.93;12.77;;;10.40;99.90;;;;;;5037930;28;20088;-83
2024/02/03 01:07:18;;;;;;;18.20;13.52;;;10.40;99.90;;;;;;5038152;28;20031;-83
2024/02/03 01:09:44;;;;;;;18.17;14.50;;;10.50;99.90;;;;;;5037889;28;20384;-84
2024/02/03 01:12:09;;;;;;;19.65;13.75;;;10.50;99.90;;;;;;5037753;28;20567;-84
2024/02/03 01:14:35;;;;;;;17.58;13.27;;;10.50;99.90;;;;;;5037892;28;20056;-82
2024/02/03 01:17:02;;;;;;;14.32;12.07;;;10.50;99.90;;;;;;5037258;28;20025;-83
2024/02/03 01:19:28;;;;;;;16.00;11.60;;;10.40;99.90;;;;;;5054170;28;20021;-83
2024/02/03 01:21:54;;;;;;;15.82;12.18;;;10.40;99.90;;;;;;5054844;28;20099;-83
2024/02/03 01:24:22;;;;;;;16.23;11.90;;;10.50;99.90;;;;;;5054418;28;20067;-82
2024/02/03 01:26:48;;;;;;;18.23;12.10;;;10.50;99.90;;;;;;5037022;28;20053;-83
2024/02/03 01:29:14;;;;;;;16.40;11.60;;;10.50;99.90;;;;;;5054264;28;20029;-84
2024/02/03 01:31:40;;;;;;;13.27;10.88;;;10.50;99.90;;;;;;5037702;28;20064;-83
2024/02/03 01:34:05;;;;;;;12.68;10.48;;;10.50;99.90;;;;;;5055109;28;20075;-83
2024/02/03 01:36:31;;;;;;;13.23;10.68;;;10.50;99.90;;;;;;5054704;28;20381;-83
2024/02/03 01:38:56;;;;;;;14.55;10.15;;;10.50;99.90;;;;;;5054170;28;20033;-84
2024/02/03 01:41:22;;;;;;;12.98;9.75;;;10.50;99.90;;;;;;5037968;28;20033;-82
2024/02/03 01:43:48;;;;;;;13.35;9.63;;;10.50;99.90;;;;;;5054561;28;20028;-83
2024/02/03 01:46:16;;;;;;;12.90;10.07;;;10.50;99.90;;;;;;5038065;28;20052;-83
2024/02/03 01:48:42;;;;;;;13.63;9.45;;;10.50;99.90;;;;;;5056550;28;20114;-83
2024/02/03 01:51:10;;;;;;;13.18;9.38;;;10.50;99.90;;;;;;5054064;28;20029;-83
2024/02/03 01:53:35;;;;;;;13.38;9.15;;;10.50;99.90;;;;;;5061963;28;20005;-82
2024/02/03 01:56:05;;;;;;;13.82;8.82;;;10.50;99.90;;;;;;5060963;28;20028;-83
2024/02/03 01:58:30;;;;;;;12.15;9.52;;;10.50;99.90;;;;;;5074868;28;20021;-83
2024/02/03 02:01:00;;;;;;;12.20;9.25;;;10.50;99.90;;;;;;5070864;28;20043;-82
2024/02/03 02:03:25;;;;;;;11.18;8.90;;;10.50;99.90;;;;;;5058390;28;20029;-82
2024/02/03 02:05:51;;;;;;;12.43;8.85;;;10.60;99.90;;;;;;5037033;28;20021;-83
2024/02/03 02:08:19;;;;;;;14.18;9.27;;;10.60;99.90;;;;;;5036694;28;20089;-83
2024/02/03 02:10:44;;;;;;;12.45;9.50;;;10.60;99.90;;;;;;5036814;28;20473;-84
2024/02/03 02:13:11;;;;;;;11.10;8.32;;;10.60;99.90;;;;;;5036820;28;20040;-84
2024/02/03 02:15:36;;;;;;;11.25;8.27;;;10.60;99.90;;;;;;5036824;28;20427;-84
2024/02/03 02:18:05;;;;;;;10.65;8.15;;;10.60;99.90;;;;;;5053191;28;20129;-83
2024/02/03 02:20:30;;;;;;;12.75;8.75;;;10.60;99.90;;;;;;5036908;28;20472;-83
2024/02/03 02:22:56;;;;;;;15.77;8.95;;;10.60;99.90;;;;;;5052838;28;20037;-83
2024/02/03 02:25:22;;;;;;;10.93;7.55;;;10.60;99.90;;;;;;5052778;28;20084;-83
2024/02/03 02:27:48;;;;;;;10.75;8.73;;;10.60;99.90;;;;;;5036596;28;20036;-82
2024/02/03 02:30:14;;;;;;;12.35;8.48;;;10.60;99.90;;;;;;5053061;28;20518;-82
2024/02/03 02:32:39;;;;;;;11.55;8.00;;;10.60;99.90;;;;;;5053052;28;20025;-83
2024/02/03 02:35:05;;;;;;;12.43;7.88;;;10.60;99.90;;;;;;5052441;28;20043;-83
2024/02/03 02:37:31;;;;;;;11.52;7.22;;;10.60;99.90;;;;;;5036294;28;20032;-83
2024/02/03 02:39:57;;;;;;;10.68;8.00;;;10.60;99.90;;;;;;5053963;28;20100;-83
2024/02/03 02:42:25;;;;;;;11.25;8.00;;;10.60;99.90;;;;;;5052634;28;20033;-83
2024/02/03 02:44:51;;;;;;;9.65;7.45;;;10.60;99.90;;;;;;5053083;28;20079;-84
2024/02/03 02:47:17;;;;;;;12.40;7.78;;;10.70;99.90;;;;;;5035449;28;20485;-84
2024/02/03 02:49:42;;;;;;;13.57;8.18;;;10.70;99.90;;;;;;5053185;28;20476;-83
2024/02/03 02:52:08;;;;;;;10.38;7.53;;;10.70;99.90;;;;;;5052423;28;20067;-83
2024/02/03 02:54:34;;;;;;;10.98;7.65;;;10.70;99.90;;;;;;5052478;28;20079;-83
2024/02/03 02:56:59;;;;;;;9.38;6.65;;;10.70;99.90;;;;;;5052657;28;20033;-83
2024/02/03 02:59:25;;;;;;;8.35;6.97;;;10.70;99.90;;;;;;5035911;28;20033;-83
2024/02/03 03:01:51;;;;;;;13.02;7.10;;;10.70;99.90;;;;;;5052274;28;20060;-84
2024/02/03 03:04:17;;;;;;;9.13;6.82;;;10.70;99.90;;;;;;5036015;28;20029;-83
2024/02/03 03:06:43;;;;;;;9.45;6.85;;;10.70;99.90;;;;;;5036480;28;20025;-82
2024/02/03 03:09:08;;;;;;;10.18;6.53;;;10.70;99.90;;;;;;5052947;28;20032;-84
2024/02/03 03:11:35;;;;;;;10.60;6.65;;;10.70;99.90;;;;;;5052710;28;20048;-84
2024/02/03 03:14:01;;;;;;;10.07;6.97;;;10.70;99.90;;;;;;5036843;28;20358;-84
2024/02/03 03:16:27;;;;;;;9.05;7.13;;;10.70;99.90;;;;;;5036626;28;20044;-83
2024/02/03 03:18:53;;;;;;;12.50;6.32;;;10.70;99.90;;;;;;5054786;28;20036;-83
2024/02/03 03:21:19;;;;;;;9.27;6.15;;;10.60;99.90;;;;;;5036961;28;20040;-84
2024/02/03 03:23:44;;;;;;;10.27;6.68;;;10.60;99.90;;;;;;5038165;28;20033;-84
2024/02/03 03:26:11;;;;;;;9.98;6.57;;;10.60;99.90;;;;;;5071494;28;20057;-83
2024/02/03 03:28:37;;;;;;;7.72;5.85;;;10.70;99.90;;;;;;5059232;28;20017;-84
2024/02/03 03:31:05;;;;;;;9.65;6.18;;;10.60;99.90;;;;;;5054792;28;20036;-83
2024/02/03 03:33:31;;;;;;;9.10;6.72;;;10.70;99.90;;;;;;5049120;28;20032;-84
2024/02/03 03:35:56;;;;;;;11.63;6.63;;;10.70;99.90;;;;;;5053077;28;20026;-83
2024/02/03 03:38:23;;;;;;;11.23;7.32;;;10.70;99.90;;;;;;5035805;28;20465;-82
2024/02/03 03:40:49;;;;;;;9.88;6.95;;;10.70;99.90;;;;;;5052198;28;20033;-84
2024/02/03 03:43:17;;;;;;;8.75;6.05;;;10.70;99.90;;;;;;5052368;28;20102;-84
2024/02/03 03:45:43;;;;;;;8.48;6.63;;;10.70;99.90;;;;;;5035858;28;20082;-83
2024/02/03 03:48:09;;;;;;;8.90;6.28;;;10.70;99.90;;;;;;5053549;28;20029;-82
2024/02/03 03:50:34;;;;;;;13.32;7.55;;;10.70;99.90;;;;;;5035600;28;20061;-84
2024/02/03 03:53:00;;;;;;;10.80;6.38;;;10.70;99.90;;;;;;5035722;28;20036;-83
2024/02/03 03:55:25;;;;;;;7.53;6.18;;;10.60;99.90;;;;;;5035047;28;20017;-84
2024/02/03 03:57:51;;;;;;;10.40;6.75;;;10.60;99.90;;;;;;5035558;28;20028;-84
2024/02/03 04:00:17;;;;;;;9.10;6.80;;;10.60;99.90;;;;;;5051850;28;20135;-83
2024/02/03 04:02:43;;;;;;;10.35;6.80;;;10.60;99.90;;;;;;5052314;28;20171;-83
2024/02/03 04:05:09;;;;;;;10.93;6.28;;;10.60;99.90;;;;;;5035646;28;20063;-85
2024/02/03 04:07:35;;;;;;;8.65;6.13;;;10.60;99.90;;;;;;5035650;28;20385;-84
2024/02/03 04:10:04;;;;;;;8.85;5.85;;;10.60;99.90;;;;;;5052192;28;20461;-86
2024/02/03 04:12:33;;;;;;;9.68;6.13;;;10.60;99.90;;;;;;5052216;28;20496;-85
2024/02/03 04:14:58;;;;;;;8.38;5.95;;;10.60;99.90;;;;;;5038871;28;20465;-85
2024/02/03 04:17:24;;;;;;;7.43;6.10;;;10.70;99.90;;;;;;5038719;28;20029;-85
2024/02/03 04:19:53;;;;;;;7.55;6.20;;;10.70;99.90;;;;;;5039015;28;20098;-85
2024/02/03 04:22:19;;;;;;;8.40;5.63;;;10.70;99.90;;;;;;5055730;28;20040;-85
2024/02/03 04:24:47;;;;;;;7.78;6.07;;;10.70;99.90;;;;;;5039478;28;20461;-85
2024/02/03 04:27:12;;;;;;;8.80;6.22;;;10.70;99.90;;;;;;5019834;28;20090;-85
2024/02/03 04:29:38;;;;;;;10.35;7.07;;;10.70;99.90;;;;;;5036816;28;20029;-86
2024/02/03 04:32:04;;;;;;;10.57;6.85;;;10.70;99.90;;;;;;5035477;28;20029;-85
2024/02/03 04:34:30;;;;;;;8.98;6.85;;;10.70;99.90;;;;;;5019058;28;20059;-84
2024/02/03 04:36:56;;;;;;;9.82;6.63;;;10.70;99.90;;;;;;5035712;28;20473;-85
2024/02/03 04:39:22;;;;;;;7.97;5.75;;;10.70;99.90;;;;;;5035868;28;20037;-85
2024/02/03 04:41:48;;;;;;;10.73;6.22;;;10.70;99.90;;;;;;5020902;28;20029;-85
2024/02/03 04:44:14;;;;;;;7.60;6.00;;;10.70;99.90;;;;;;5037821;28;20382;-85
2024/02/03 04:46:40;;;;;;;10.98;6.72;;;10.70;99.90;;;;;;5021469;28;20080;-86
2024/02/03 04:49:06;;;;;;;8.73;6.00;;;10.70;99.90;;;;;;5023292;28;20040;-86
2024/02/03 04:51:34;;;;;;;8.05;6.57;;;10.70;99.90;;;;;;5040623;28;20021;-85
2024/02/03 04:54:00;;;;;;;11.48;6.43;;;10.60;99.90;;;;;;5019784;28;20128;-86
2024/02/03 04:56:26;;;;;;;10.43;6.70;;;10.70;99.90;;;;;;5043338;28;20036;-85
2024/02/03 04:58:52;;;;;;;8.57;6.10;;;10.60;99.90;;;;;;5059045;28;20105;-84
2024/02/03 05:01:17;;;;;;;10.68;6.82;;;10.60;99.90;;;;;;5042523;28;20108;-83
2024/02/03 05:03:43;;;;;;;9.98;5.85;;;10.60;99.90;;;;;;5050038;28;20089;-85
2024/02/03 05:06:10;;;;;;;8.77;6.05;;;10.60;99.90;;;;;;5021865;28;20036;-86
2024/02/03 05:08:40;;;;;;;13.20;6.60;;;10.60;99.90;;;;;;5018773;28;20026;-86
2024/02/03 05:11:06;;;;;;;7.97;6.10;;;10.60;99.90;;;;;;5036541;28;20030;-85
2024/02/03 05:13:31;;;;;;;10.02;5.95;;;10.60;99.90;;;;;;5034697;28;20132;-86
2024/02/03 05:15:57;;;;;;;8.40;5.55;;;10.60;99.90;;;;;;5035388;28;20056;-84
2024/02/03 05:18:23;;;;;;;11.65;6.20;;;10.60;99.90;;;;;;5051191;28;20029;-85
2024/02/03 05:20:49;;;;;;;7.03;5.22;;;10.60;99.90;;;;;;5034570;28;20079;-85
2024/02/03 05:23:15;;;;;;;7.85;5.60;;;10.60;99.90;;;;;;5034870;28;20112;-85
2024/02/03 05:25:40;;;;;;;10.27;5.97;;;10.60;99.90;;;;;;5040744;28;20460;-85
2024/02/03 05:28:06;;;;;;;9.75;5.25;;;10.60;99.90;;;;;;5038106;28;20029;-85
2024/02/03 05:30:39;;;;;;;9.57;5.65;;;10.60;99.90;;;;;;5054245;28;20120;-85
2024/02/03 05:33:05;;;;;;;8.55;5.75;;;10.60;99.90;;;;;;5054737;28;20094;-85
2024/02/03 05:35:33;;;;;;;5.95;5.07;;;10.60;99.90;;;;;;5054401;28;20029;-85
2024/02/03 05:37:59;;;;;;;10.50;6.20;;;10.60;99.90;;;;;;5037501;28;20171;-85
2024/02/03 05:40:25;;;;;;;9.18;5.50;;;10.60;99.90;;;;;;5053755;28;20115;-84
2024/02/03 05:42:50;;;;;;;10.20;5.63;;;10.60;99.90;;;;;;5054211;28;20032;-85
2024/02/03 05:45:17;;;;;;;7.03;4.72;;;10.60;99.90;;;;;;5037294;28;20547;-85
2024/02/03 05:47:43;;;;;;;8.02;4.85;;;10.70;99.90;;;;;;5055257;28;20360;-85
2024/02/03 05:50:09;;;;;;;6.20;4.38;;;10.70;99.90;;;;;;5054077;28;20029;-86
2024/02/03 05:52:37;;;;;;;8.32;5.18;;;10.70;99.90;;;;;;5037179;28;20025;-85
2024/02/03 05:55:03;;;;;;;12.07;4.80;;;10.70;99.90;;;;;;5054081;28;20044;-84
2024/02/03 05:57:29;;;;;;;6.60;4.35;;;10.70;99.90;;;;;;5054790;28;20032;-85
2024/02/03 05:59:54;;;;;;;6.53;3.80;;;10.80;99.90;;;;;;5053702;28;20036;-85
2024/02/03 06:02:20;;;;;;;5.93;3.92;;;10.70;99.90;;;;;;5053585;28;20499;-85
2024/02/03 06:04:46;;;;;;;7.45;3.97;;;10.80;99.90;;;;;;5053973;28;20388;-86
2024/02/03 06:07:13;;;;;;;8.15;4.30;;;10.80;99.90;;;;;;5037142;28;20033;-86
2024/02/03 06:09:39;;;;;;;6.43;4.05;;;10.80;99.90;;;;;;5053488;28;20057;-86
2024/02/03 06:12:05;;;;;;;7.10;3.95;;;10.80;99.90;;;;;;5054506;28;20067;-86
2024/02/03 06:14:32;;;;;;;6.97;3.60;;;10.90;99.90;;;;;;5053591;28;20025;-85
2024/02/03 06:16:57;;;;;;;8.35;4.03;;;10.90;99.90;;;;;;5036683;28;20075;-85
2024/02/03 06:19:23;;;;;;;7.43;4.15;;;10.90;99.90;;;;;;5054371;28;20029;-85
2024/02/03 06:21:49;;;;;;;5.18;3.55;;;10.90;99.90;;;;;;5055759;28;20040;-86
2024/02/03 06:24:15;;;;;;;6.80;3.70;;;10.90;99.90;;;;;;5054018;28;20190;-85
2024/02/03 06:26:40;;;;;;;9.63;3.88;;;10.90;99.90;;;;;;5038223;28;20044;-86
2024/02/03 06:29:09;;;;;;;8.98;3.80;;;10.80;99.90;;;;;;5075835;28;20019;-85
2024/02/03 06:31:35;;;;;;;6.95;3.65;;;10.80;99.90;;;;;;5061743;28;20021;-83
2024/02/03 06:34:01;;;;;;;10.02;3.05;;;10.80;99.90;;;;;;5058154;28;20054;-86
2024/02/03 06:36:27;;;;;;;8.40;3.95;;;10.80;99.90;;;;;;5054517;28;20089;-84
2024/02/03 06:38:53;;;;;;;9.93;4.22;;;10.80;99.90;;;;;;5056114;28;20094;-86
2024/02/03 06:41:21;;;;;;;7.03;3.30;;;10.80;99.90;;;;;;5054356;28;20029;-86
2024/02/03 06:43:46;;;;;;;6.70;3.63;;;10.80;99.90;;;;;;5054123;28;20036;-86
2024/02/03 06:46:12;;;;;;;7.32;3.85;;;10.80;99.90;;;;;;5060501;28;20024;-85
2024/02/03 06:48:38;;;;;;;7.25;3.53;;;10.80;99.90;;;;;;5066778;28;20021;-85
2024/02/03 06:51:04;;;;;;;6.45;3.58;;;10.80;99.90;;;;;;5065181;28;20025;-85
2024/02/03 06:53:29;;;;;;;7.22;3.67;;;10.80;99.90;;;;;;5061069;28;20064;-84
2024/02/03 06:55:56;;;;;;;6.60;3.80;;;10.80;99.90;;;;;;5039541;28;20025;-86
2024/02/03 06:58:23;;;;;;;7.82;4.13;;;10.80;99.90;;;;;;5036400;28;20037;-86
2024/02/03 07:00:49;;;;;;;7.25;3.88;;;10.80;99.90;;;;;;5036025;28;20032;-85
2024/02/03 07:03:15;;;;;;;7.25;4.03;;;10.80;99.90;;;;;;5052924;28;20029;-85
2024/02/03 07:05:40;;;;;;;6.95;3.75;;;10.80;99.90;;;;;;5053089;28;20056;-85
2024/02/03 07:08:10;;;;;;;7.95;3.83;;;10.80;99.90;;;;;;5052894;28;20036;-85
2024/02/03 07:10:39;;;;;;;8.15;4.15;;;10.80;99.90;;;;;;5036375;28;20036;-85
2024/02/03 07:13:04;;;;;;;5.65;3.55;;;10.80;99.90;;;;;;5052850;28;20063;-85
2024/02/03 07:15:30;;;;;;;7.03;3.53;;;10.80;99.90;;;;;;5036299;28;20021;-86
2024/02/03 07:17:56;;;;;;;7.63;3.70;;;10.80;99.90;;;;;;5036387;28;20029;-85
2024/02/03 07:20:21;;;;;;;7.45;3.88;;;10.80;99.90;;;;;;5054400;28;20088;-84
2024/02/03 07:22:47;;;;;;;8.00;4.03;;;10.80;99.90;;;;;;5052773;28;20021;-85
2024/02/03 07:25:13;;;;;;;7.95;4.13;;;10.80;99.90;;;;;;5039064;28;20113;-84
2024/02/03 07:27:39;;;;;;;5.97;3.72;;;10.80;99.90;;;;;;5056005;28;20557;-88
2024/02/03 07:30:05;;;;;;;10.43;3.85;;;10.80;99.90;;;;;;5055927;28;20412;-86
2024/02/03 07:32:34;;;;;;;10.05;4.13;;;10.80;99.90;;;;;;5056201;28;20027;-86
2024/02/03 07:35:06;;;;;;;7.78;3.90;;;10.80;99.90;;;;;;5039211;28;20040;-87
2024/02/03 07:37:39;;;;;;;8.38;3.63;;;10.80;99.90;;;;;;5056147;28;20028;-85
2024/02/03 07:40:06;;;;;;;8.25;4.20;;;10.80;99.90;;;;;;5055703;28;20428;-85
2024/02/03 07:42:38;;;;;;;9.57;3.88;;;10.70;99.90;;;;;;5039595;28;19966;-85
2024/02/03 07:45:07;;;;;;;8.60;4.20;;;10.70;99.90;;;;;;5056013;28;20027;-85
2024/02/03 07:47:33;;;;;;;8.15;4.05;;;10.80;99.90;;;;;;5041197;28;20025;-84
2024/02/03 07:50:01;;;;;;;7.50;4.38;;;10.80;99.90;;;;;;5060466;28;20028;-86
2024/02/03 07:52:33;;;;;;;6.78;4.00;;;10.80;99.90;;;;;;5044439;28;20477;-86
2024/02/03 07:54:59;;;;;;;11.30;4.93;;;10.80;99.90;;;;;;5061461;28;20146;-86
2024/02/03 07:57:25;;;;;;;8.13;4.20;;;10.80;99.90;;;;;;5083847;28;20017;-86
2024/02/03 07:59:50;;;;;;;9.55;4.70;;;10.80;99.90;;;;;;5079823;28;20035;-86
2024/02/03 08:02:16;;;;;;;9.63;5.10;;;10.80;99.90;;;;;;5079692;28;20028;-85
2024/02/03 08:04:42;;;;;;;11.98;5.47;;;10.80;99.90;;;;;;5075572;28;20031;-86
2024/02/03 08:07:08;;;;;;;15.05;5.35;;;10.80;99.90;;;;;;5056495;28;20520;-90
2024/02/03 08:09:33;;;;;;;10.15;4.90;;;10.80;99.90;;;;;;5062086;28;20107;-85
2024/02/03 08:11:59;;;;;;;9.27;4.95;;;10.80;99.90;;;;;;5042906;28;20040;-86
2024/02/03 08:14:25;;;;;;;11.38;5.55;;;10.80;99.90;;;;;;5077304;28;20391;-86
2024/02/03 08:16:50;;;;;;;9.40;5.80;;;10.80;99.90;;;;;;5042459;28;20505;-85
2024/02/03 08:19:17;;;;;;;11.40;5.53;;;10.80;99.90;;;;;;5059126;28;20024;-85
2024/02/03 08:21:46;;;;;;;11.25;5.88;;;10.80;99.90;;;;;;5077144;28;20495;-86
2024/02/03 08:24:12;;;;;;;10.45;5.43;;;10.80;99.90;;;;;;5042441;28;20036;-86
2024/02/03 08:26:37;;;;;;;10.90;5.60;;;10.80;99.90;;;;;;5058606;28;20044;-88
2024/02/03 08:29:03;;;;;;;12.98;6.10;;;10.80;99.90;;;;;;5076805;28;20033;-86
2024/02/03 08:31:29;;;;;;;11.02;5.97;;;10.80;99.90;;;;;;5041386;28;20077;-87
2024/02/03 08:33:55;;;;;;;12.63;6.63;;;10.80;99.90;;;;;;5058332;28;20464;-85
2024/02/03 08:36:44;;;;;;;9.57;5.90;;;10.80;99.90;;;;;;5042066;28;20124;-84
2024/02/03 08:39:11;;;;;;;13.02;6.00;;;10.80;99.90;;;;;;5076415;28;20024;-87
2024/02/03 08:41:40;;;;;;;11.43;6.25;;;10.80;99.90;;;;;;5042603;28;20460;-86
2024/02/03 08:44:08;;;;;;;12.80;6.28;;;10.80;99.90;;;;;;5041981;28;20039;-89
2024/02/03 08:46:36;;;;;;;8.10;5.05;;;10.80;99.90;;;;;;5077001;28;20025;-89
2024/02/03 08:49:01;;;;;;;10.50;6.60;;;10.90;99.90;;;;;;5042551;28;20056;-84
2024/02/03 08:51:29;;;;;;;11.30;5.90;;;10.90;99.90;;;;;;5042073;28;20040;-89
2024/02/03 08:53:55;;;;;;;10.10;6.35;;;10.90;99.90;;;;;;5060091;28;20028;-88
2024/02/03 08:56:21;;;;;;;16.45;6.35;;;10.90;99.90;;;;;;5077290;28;20024;-87
2024/02/03 08:59:03;;;;;;;13.18;6.53;;;10.90;99.90;;;;;;5059206;28;20024;-90
2024/02/03 09:01:30;;;;;;;10.45;5.82;;;10.90;99.90;;;;;;5042470;28;20028;-88
2024/02/03 09:03:55;;;;;;;10.77;5.70;;;10.90;99.90;;;;;;5042212;28;20055;-88
2024/02/03 09:06:21;;;;;;;14.43;6.50;;;10.90;99.90;;;;;;5042053;28;20468;-86
2024/02/03 09:08:47;;;;;;;13.27;6.85;;;10.90;99.90;;;;;;5057957;28;20465;-87
2024/02/03 09:11:13;;;;;;;12.13;6.85;;;11.00;99.90;;;;;;5042499;28;20448;-87
2024/02/03 09:13:39;;;;;;;10.85;5.40;;;11.00;99.90;;;;;;5042513;28;20115;-87
2024/02/03 09:16:05;;;;;;;9.90;5.72;;;11.00;99.90;;;;;;5041712;28;20067;-88
2024/02/03 09:18:32;;;;;;;13.52;6.32;;;11.00;99.90;;;;;;5059804;28;20460;-87
2024/02/03 09:20:57;;;;;;;11.45;5.63;;;11.00;99.90;;;;;;5058919;28;20116;-89
2024/02/03 09:23:24;;;;;;;14.02;6.20;;;11.00;99.90;;;;;;5042782;28;20056;-88
2024/02/03 09:25:51;;;;;;;11.60;5.32;;;11.00;99.90;;;;;;5042489;28;20049;-87
2024/02/03 09:28:19;;;;;;;11.70;5.90;;;11.10;99.90;;;;;;5059660;28;20499;-87
2024/02/03 09:30:45;;;;;;;12.35;5.53;;;11.10;99.90;;;;;;5050972;28;20040;-88
2024/02/03 09:33:19;;;;;;;10.82;6.00;;;11.10;99.90;;;;;;5081237;28;20037;-89
2024/02/03 09:35:45;;;;;;;9.10;5.85;;;11.10;99.90;;;;;;5081944;28;20047;-88
2024/02/03 09:38:12;;;;;;;13.23;5.70;;;11.10;99.90;;;;;;5080624;28;20029;-87
2024/02/03 09:40:38;;;;;;;12.10;5.75;;;11.10;99.90;;;;;;5056645;28;20032;-88
2024/02/03 09:43:04;;;;;;;10.30;5.45;;;11.10;99.90;;;;;;5063883;28;20112;-87
2024/02/03 09:45:34;;;;;;;10.63;5.25;;;11.20;99.90;;;;;;5045259;28;20162;-87
2024/02/03 09:48:03;;;;;;;11.82;6.07;;;11.20;99.90;;;;;;5068155;28;20089;-88
2024/02/03 09:50:29;;;;;;;13.85;5.80;;;11.20;99.90;;;;;;5087907;28;20024;-87
2024/02/03 09:52:57;;;;;;;13.93;6.43;;;11.20;99.90;;;;;;5050824;28;20038;-86
2024/02/03 09:55:23;;;;;;;8.55;4.78;;;11.20;99.90;;;;;;5047268;28;20036;-87
2024/02/03 09:57:49;;;;;;;9.88;5.40;;;11.30;99.90;;;;;;5058385;28;20020;-88
2024/02/03 10:00:16;;;;;;;10.43;5.10;;;11.30;99.90;;;;;;5058627;28;20039;-88
2024/02/03 10:02:43;;;;;;;10.68;5.57;;;11.40;99.90;;;;;;5057978;28;20183;-88
2024/02/03 10:05:11;;;;;;;11.52;5.10;;;11.40;99.90;;;;;;5057777;28;20365;-87
2024/02/03 10:07:37;;;;;;;10.18;5.07;;;11.30;99.90;;;;;;5041067;28;20035;-88
2024/02/03 10:10:07;;;;;;;11.38;5.18;;;11.30;99.90;;;;;;5040949;28;20021;-88
2024/02/03 10:12:41;;;;;;;11.98;5.18;;;11.30;99.90;;;;;;5040444;28;20032;-89
2024/02/03 10:15:09;;;;;;;9.95;4.43;;;11.30;99.90;;;;;;5059361;28;20084;-88
2024/02/03 10:17:35;;;;;;;11.00;4.80;;;11.30;99.90;;;;;;5058657;28;20035;-88
2024/02/03 10:20:00;;;;;;;11.30;4.50;;;11.30;99.90;;;;;;5040680;28;20377;-87
2024/02/03 10:22:27;;;;;;;11.43;5.18;;;11.30;99.90;;;;;;5075614;28;20099;-89
2024/02/03 10:24:57;;;;;;;10.13;4.60;;;11.30;99.90;;;;;;5059326;28;20040;-90
2024/02/03 10:27:26;;;;;;;14.90;4.88;;;11.20;99.90;;;;;;5057043;28;20044;-88
2024/02/03 10:29:55;;;;;;;9.27;4.10;;;11.30;99.90;;;;;;5041371;28;20089;-90
2024/02/03 10:32:22;;;;;;;9.30;4.13;;;11.20;99.90;;;;;;5075703;28;20028;-88
2024/02/03 10:35:02;;;;;;;12.63;4.57;;;11.20;99.90;;;;;;5076793;28;20044;-89
2024/02/03 10:37:28;;;;;;;10.20;5.10;;;11.20;99.90;;;;;;5059697;28;20024;-89
2024/02/03 10:39:54;;;;;;;10.60;4.22;;;11.20;99.90;;;;;;5058407;28;20035;-88
2024/02/03 10:42:23;;;;;;;11.77;4.30;;;11.20;99.90;;;;;;5057232;28;20039;-89
2024/02/03 10:45:16;;;;;;;7.32;4.00;;;11.20;99.90;;;;;;5057722;28;20417;-89
2024/02/03 10:47:45;;;;;;;11.15;4.07;;;11.20;99.90;;;;;;5058593;28;20177;-91
2024/02/03 10:50:13;;;;;;;11.90;4.05;;;11.20;99.90;;;;;;5041772;28;20035;-88
2024/02/03 10:52:42;;;;;;;7.60;3.30;;;11.20;99.90;;;;;;5057658;28;20028;-89
2024/02/03 10:55:15;;;;;;;8.30;3.42;;;11.20;99.90;;;;;;5058375;28;20384;-90
2024/02/03 10:57:44;;;;;;;8.52;2.88;;;11.20;99.90;;;;;;5077503;28;20028;-90
2024/02/03 11:00:15;;;;;;;9.93;3.35;;;11.20;99.90;;;;;;5059062;28;20031;-92
2024/02/03 11:02:53;;;;;;;5.50;3.08;;;11.20;99.90;;;;;;5064679;28;20033;-89
2024/02/03 11:05:26;;;;;;;8.98;2.83;;;11.20;99.90;;;;;;5096714;28;20029;-85
2024/02/03 11:07:51;;;;;;;9.88;3.28;;;11.20;99.90;;;;;;5080668;28;20029;-89
2024/02/03 11:10:27;;;;;;;8.38;3.25;;;11.30;99.90;;;;;;5080334;28;20055;-87
2024/02/03 11:12:52;;;;;;;7.18;3.00;;;11.30;99.90;;;;;;5070503;28;20029;-86
2024/02/03 11:15:18;;;;;;;7.45;3.13;;;11.30;99.90;;;;;;5042631;28;20029;-88
2024/02/03 11:17:47;;;;;;;8.02;3.33;;;11.30;99.90;;;;;;5075548;28;20111;-88
2024/02/03 11:20:20;;;;;;;10.20;3.38;;;11.30;99.90;;;;;;5056957;28;20017;-88
2024/02/03 11:22:58;;;;;;;5.15;2.63;;;11.30;99.90;;;;;;5059175;28;20029;-87
2024/02/03 11:25:24;;;;;;;6.38;3.10;;;11.30;99.90;;;;;;5078259;28;20020;-86
2024/02/03 11:27:57;;;;;;;7.25;2.95;;;11.30;99.90;;;;;;5079205;28;20167;-86
2024/02/03 11:30:26;;;;;;;6.53;3.28;;;11.30;99.90;;;;;;5060871;28;20054;-87
2024/02/03 11:32:55;;;;;;;7.05;3.08;;;11.30;99.90;;;;;;5043483;28;20116;-87
2024/02/03 11:35:28;;;;;;;7.45;2.83;;;11.30;99.90;;;;;;5078509;28;20024;-88
2024/02/03 11:38:29;;;;;;;4.97;2.80;;;11.30;99.90;;;;;;5061857;28;20036;-83
2024/02/03 11:44:19;;;;;;;8.48;3.00;;;11.30;99.90;;;;;;5078194;28;20024;-88
2024/02/03 11:46:47;;;;;;;5.68;2.78;;;11.20;99.90;;;;;;5059871;28;20028;-86
2024/02/03 11:49:23;;;;;;;5.28;2.50;;;11.20;99.90;;;;;;5059894;28;20020;-87
2024/02/03 11:52:01;;;;;;;5.63;2.95;;;11.30;99.90;;;;;;5044578;28;20048;-87
2024/02/03 11:54:28;;;;;;;5.53;2.63;;;11.30;99.90;;;;;;5077732;28;20082;-88
2024/02/03 11:56:56;;;;;;;4.25;2.63;;;11.30;99.90;;;;;;5060074;28;20119;-88
2024/02/03 11:59:29;;;;;;;6.75;2.72;;;11.30;99.90;;;;;;5078067;28;20476;-88
2024/02/03 12:01:58;;;;;;;5.10;2.85;;;11.30;99.90;;;;;;5043376;28;20094;-89
2024/02/03 12:04:26;;;;;;;7.72;2.70;;;11.30;99.90;;;;;;5059906;28;20029;-89
2024/02/03 12:06:54;;;;;;;4.78;2.25;;;11.30;99.90;;;;;;5059574;28;20035;-86
2024/02/03 12:09:19;;;;;;;4.50;2.22;;;11.30;99.90;;;;;;5077219;28;20099;-86
2024/02/03 12:11:50;;;;;;;4.75;2.40;;;11.30;99.90;;;;;;5059133;28;20052;-86
2024/02/03 12:14:17;;;;;;;5.88;2.90;;;11.30;99.90;;;;;;5059416;28;20430;-86
2024/02/03 12:16:47;;;;;;;7.70;2.63;;;11.30;99.90;;;;;;5077223;28;20021;-87
2024/02/03 12:19:13;;;;;;;4.38;2.78;;;11.30;99.90;;;;;;5059393;28;20056;-87
2024/02/03 12:21:39;;;;;;;5.05;2.40;;;11.30;99.90;;;;;;5059403;28;20063;-86
2024/02/03 12:24:08;;;;;;;9.15;2.85;;;11.30;99.90;;;;;;5059060;28;20052;-86
2024/02/03 12:26:34;;;;;;;3.75;2.78;;;11.30;99.90;;;;;;5055266;28;20048;-85
2024/02/03 12:29:03;;;;;;;4.10;2.63;;;11.40;99.90;;;;;;5056401;28;20025;-85
2024/02/03 12:31:29;;;;;;;4.65;2.95;;;11.40;99.90;;;;;;5038892;28;20532;-86
2024/02/03 12:33:55;;;;;;;4.90;3.05;;;11.30;99.90;;;;;;5056744;28;20067;-87
2024/02/03 12:36:21;;;;;;;5.88;3.28;;;11.40;99.90;;;;;;5047885;28;20140;-86
2024/02/03 12:38:47;;;;;;;7.88;3.50;;;11.40;99.90;;;;;;5080503;28;20025;-87
2024/02/03 12:41:13;;;;;;;8.90;4.28;;;11.40;99.90;;;;;;5063450;28;20023;-85
2024/02/03 12:43:39;;;;;;;8.27;3.72;;;11.40;99.90;;;;;;5079637;28;20013;-87